Time;durP1;ratioP1;P1;durP2;ratioP2;P2;SDS_P1;SDS_P2;PMS_P1;PMS_P2;Temp;Humidity;BMP_temperature;BMP_pressure;BME280_temperature;BME280_humidity;BME280_pressure;Samples;Min_cycle;Max_cycle;Signal;HPM_P1;HPM_P2
2022/03/19 00:01:10;;;;;;;32.53;18.90;;;8.60;70.60;;;;;;4987617;28;20268;-77
2022/03/19 00:03:38;;;;;;;40.40;22.50;;;8.60;70.60;;;;;;4985504;28;20473;-78
2022/03/19 00:06:08;;;;;;;39.05;22.95;;;8.60;70.50;;;;;;4988348;28;20548;-78
2022/03/19 00:08:37;;;;;;;42.70;23.60;;;8.60;70.40;;;;;;5002823;28;20586;-78
2022/03/19 00:11:05;;;;;;;38.60;21.80;;;8.50;70.40;;;;;;4985571;28;20492;-78
2022/03/19 00:13:33;;;;;;;33.93;22.20;;;8.50;70.30;;;;;;4987311;28;20515;-77
2022/03/19 00:16:01;;;;;;;35.03;21.10;;;8.40;70.20;;;;;;5000694;28;20481;-78
2022/03/19 00:18:29;;;;;;;36.93;20.20;;;8.30;70.30;;;;;;5002612;28;20541;-78
2022/03/19 00:20:58;;;;;;;31.23;19.33;;;8.30;70.30;;;;;;5003577;28;20465;-78
2022/03/19 00:23:27;;;;;;;33.43;20.10;;;8.30;70.30;;;;;;5001603;28;20488;-78
2022/03/19 00:25:55;;;;;;;32.20;19.90;;;8.30;70.20;;;;;;4990017;28;20508;-78
2022/03/19 00:28:23;;;;;;;37.27;19.33;;;8.30;70.20;;;;;;5002330;28;20516;-77
2022/03/19 00:30:57;;;;;;;33.60;20.10;;;8.20;70.20;;;;;;4984730;28;20492;-78
2022/03/19 00:33:26;;;;;;;37.63;20.00;;;8.20;70.20;;;;;;5002708;28;20539;-78
2022/03/19 00:35:54;;;;;;;35.47;18.88;;;8.20;70.10;;;;;;4986911;28;20469;-78
2022/03/19 00:38:22;;;;;;;31.60;18.38;;;8.20;70.10;;;;;;4989743;28;20215;-78
2022/03/19 00:40:52;;;;;;;30.77;16.57;;;8.10;70.10;;;;;;5005451;28;20214;-78
2022/03/19 00:43:20;;;;;;;33.58;16.05;;;8.10;70.10;;;;;;4989381;28;20544;-78
2022/03/19 00:45:49;;;;;;;26.00;16.50;;;8.10;70.00;;;;;;5005886;28;20802;-78
2022/03/19 00:48:17;;;;;;;27.95;16.00;;;8.10;69.90;;;;;;5009897;28;20585;-76
2022/03/19 00:50:46;;;;;;;28.20;15.38;;;8.10;69.90;;;;;;5008911;28;20836;-77
2022/03/19 00:53:14;;;;;;;27.33;15.77;;;8.00;69.90;;;;;;4992517;28;20214;-78
2022/03/19 00:55:42;;;;;;;26.40;14.87;;;8.00;69.90;;;;;;4993788;28;20498;-76
2022/03/19 00:58:13;;;;;;;28.27;15.43;;;8.00;69.90;;;;;;5006324;28;20461;-76
2022/03/19 01:00:41;;;;;;;37.97;18.60;;;8.00;69.90;;;;;;4987505;28;20244;-79
2022/03/19 01:03:09;;;;;;;32.40;16.33;;;8.00;69.90;;;;;;4986668;28;20468;-79
2022/03/19 01:05:37;;;;;;;30.10;15.97;;;7.90;69.90;;;;;;4986547;28;20819;-78
2022/03/19 01:08:05;;;;;;;30.33;16.60;;;7.90;69.80;;;;;;5002341;28;20454;-78
2022/03/19 01:10:34;;;;;;;40.23;17.10;;;7.90;69.80;;;;;;4989424;28;21003;-77
2022/03/19 01:13:04;;;;;;;32.47;16.25;;;7.90;69.80;;;;;;4987117;28;20557;-77
2022/03/19 01:15:34;;;;;;;26.20;15.88;;;7.80;69.80;;;;;;4985222;28;20230;-77
2022/03/19 01:18:02;;;;;;;30.48;17.27;;;7.80;69.80;;;;;;4987270;28;20261;-78
2022/03/19 01:20:31;;;;;;;26.43;16.33;;;7.80;69.80;;;;;;5002083;28;20230;-77
2022/03/19 01:22:59;;;;;;;39.97;18.27;;;7.80;69.80;;;;;;4986340;28;20581;-78
2022/03/19 01:25:27;;;;;;;28.92;16.30;;;7.80;69.90;;;;;;4987224;28;20229;-77
2022/03/19 01:27:55;;;;;;;31.70;17.13;;;7.80;69.90;;;;;;4986858;28;20265;-77
2022/03/19 01:30:24;;;;;;;31.20;16.30;;;7.80;69.90;;;;;;4988060;28;20241;-77
2022/03/19 01:32:53;;;;;;;28.17;15.63;;;7.80;69.90;;;;;;4987509;28;20279;-78
2022/03/19 01:35:22;;;;;;;30.60;16.40;;;7.80;69.80;;;;;;4989383;28;20210;-77
2022/03/19 01:37:51;;;;;;;26.60;15.20;;;7.80;69.80;;;;;;5004086;28;20945;-77
2022/03/19 01:40:20;;;;;;;22.92;14.10;;;7.80;69.80;;;;;;4990607;28;20659;-78
2022/03/19 01:42:50;;;;;;;33.10;15.23;;;7.80;69.90;;;;;;4990113;28;20222;-78
2022/03/19 01:45:22;;;;;;;25.88;13.75;;;7.80;69.90;;;;;;4993007;28;20338;-78
2022/03/19 01:47:51;;;;;;;24.70;13.80;;;7.70;69.90;;;;;;4988390;28;20206;-78
2022/03/19 01:50:22;;;;;;;26.85;13.98;;;7.70;69.90;;;;;;5004668;28;20218;-77
2022/03/19 01:52:51;;;;;;;27.73;15.38;;;7.70;70.10;;;;;;4988577;28;20285;-77
2022/03/19 01:55:21;;;;;;;30.25;15.27;;;7.70;70.10;;;;;;4991625;28;20762;-77
2022/03/19 01:57:50;;;;;;;29.73;15.55;;;7.70;70.10;;;;;;4986840;28;20257;-76
2022/03/19 02:00:21;;;;;;;30.33;15.25;;;7.70;70.10;;;;;;4989459;28;20727;-77
2022/03/19 02:02:50;;;;;;;30.53;14.40;;;7.70;70.30;;;;;;5004337;28;20253;-78
2022/03/19 02:05:22;;;;;;;26.10;14.03;;;7.80;70.40;;;;;;4989505;28;20473;-77
2022/03/19 02:07:51;;;;;;;26.58;13.88;;;7.80;70.40;;;;;;4992515;28;20461;-77
2022/03/19 02:10:22;;;;;;;28.42;15.07;;;7.90;70.30;;;;;;4988598;28;20213;-77
2022/03/19 02:12:52;;;;;;;27.38;14.52;;;7.90;70.10;;;;;;4989014;28;20230;-77
2022/03/19 02:15:21;;;;;;;25.00;15.30;;;7.80;70.10;;;;;;4989070;28;20313;-77
2022/03/19 02:17:50;;;;;;;24.97;14.37;;;7.80;70.30;;;;;;4988073;28;20540;-77
2022/03/19 02:20:19;;;;;;;23.17;13.60;;;7.80;70.30;;;;;;4989526;28;21189;-77
2022/03/19 02:25:37;;;;;;;24.37;13.07;;;7.90;70.30;;;;;;5003913;28;20458;-77
2022/03/19 02:28:06;;;;;;;27.95;14.32;;;7.90;70.10;;;;;;5003719;28;20473;-79
2022/03/19 02:30:37;;;;;;;26.50;14.77;;;7.80;69.90;;;;;;4987018;28;21168;-78
2022/03/19 02:33:06;;;;;;;29.75;14.55;;;7.70;69.80;;;;;;4988459;28;20237;-78
2022/03/19 02:35:34;;;;;;;26.10;14.50;;;7.70;69.80;;;;;;4989728;28;20198;-78
2022/03/19 02:38:02;;;;;;;29.48;15.52;;;7.70;69.90;;;;;;4987516;28;20527;-77
2022/03/19 02:40:31;;;;;;;26.58;13.85;;;7.60;69.90;;;;;;4988133;28;20771;-77
2022/03/19 02:42:59;;;;;;;25.23;14.25;;;7.60;69.90;;;;;;4987506;28;20233;-77
2022/03/19 02:45:27;;;;;;;23.48;13.05;;;7.60;69.90;;;;;;4990761;28;20284;-78
2022/03/19 02:47:58;;;;;;;28.20;14.20;;;7.60;69.80;;;;;;4990326;28;20214;-77
2022/03/19 02:50:29;;;;;;;24.38;14.10;;;7.50;69.80;;;;;;4991482;28;20227;-77
2022/03/19 02:52:58;;;;;;;25.25;15.07;;;7.50;69.80;;;;;;4989251;28;20234;-76
2022/03/19 02:55:33;;;;;;;26.30;14.82;;;7.50;69.80;;;;;;4988789;28;20687;-78
2022/03/19 02:58:01;;;;;;;27.88;15.13;;;7.40;69.80;;;;;;4988084;28;20206;-78
2022/03/19 03:00:30;;;;;;;28.77;16.58;;;7.40;69.80;;;;;;4987714;28;20242;-78
2022/03/19 03:02:58;;;;;;;30.42;14.30;;;7.40;69.80;;;;;;4989596;28;20246;-77
2022/03/19 03:05:26;;;;;;;32.45;14.82;;;7.40;69.70;;;;;;5004183;28;20734;-77
2022/03/19 03:07:54;;;;;;;33.70;15.45;;;7.30;69.70;;;;;;4986815;28;20261;-78
2022/03/19 03:10:23;;;;;;;30.63;14.60;;;7.20;69.60;;;;;;4989508;28;20221;-78
2022/03/19 03:12:53;;;;;;;26.65;15.05;;;7.20;69.60;;;;;;5002922;28;20226;-78
2022/03/19 03:15:21;;;;;;;30.15;15.23;;;7.10;69.70;;;;;;5003924;28;20294;-78
2022/03/19 03:17:49;;;;;;;28.95;13.73;;;7.10;69.80;;;;;;4998030;28;20210;-78
2022/03/19 03:20:17;;;;;;;34.85;16.83;;;7.10;69.70;;;;;;5002681;28;20203;-78
2022/03/19 03:22:45;;;;;;;32.22;14.75;;;7.00;69.70;;;;;;4986906;28;20612;-78
2022/03/19 03:25:13;;;;;;;26.55;13.80;;;7.00;69.70;;;;;;5003603;28;20215;-78
2022/03/19 03:27:41;;;;;;;29.42;14.93;;;6.90;69.90;;;;;;5003533;28;20889;-78
2022/03/19 03:30:11;;;;;;;30.02;15.95;;;6.90;69.70;;;;;;5003137;28;20421;-78
2022/03/19 03:32:39;;;;;;;30.40;16.23;;;6.80;69.60;;;;;;4988325;28;20253;-78
2022/03/19 03:35:07;;;;;;;31.73;14.77;;;6.70;69.80;;;;;;4987251;28;20231;-78
2022/03/19 03:37:36;;;;;;;31.35;15.60;;;6.70;69.80;;;;;;4989311;28;20208;-78
2022/03/19 03:40:04;;;;;;;27.52;15.75;;;6.70;69.90;;;;;;4989554;28;20214;-79
2022/03/19 03:42:32;;;;;;;26.75;16.10;;;6.60;70.00;;;;;;4988633;28;20234;-78
2022/03/19 03:45:00;;;;;;;26.88;14.25;;;6.70;70.00;;;;;;4986842;28;20218;-78
2022/03/19 03:47:30;;;;;;;25.42;13.82;;;6.60;69.90;;;;;;4985667;28;20262;-78
2022/03/19 03:49:57;;;;;;;26.60;15.10;;;6.60;69.90;;;;;;5003258;28;20218;-78
2022/03/19 03:52:26;;;;;;;31.33;14.90;;;6.50;69.80;;;;;;4987694;28;20218;-77
2022/03/19 03:54:55;;;;;;;73.65;32.75;;;6.40;70.00;;;;;;4989334;28;20668;-78
2022/03/19 03:57:23;;;;;;;159.45;62.08;;;6.40;70.10;;;;;;4987184;28;20225;-77
2022/03/19 03:59:52;;;;;;;90.90;38.40;;;6.40;70.10;;;;;;4984913;28;20203;-78
2022/03/19 04:02:20;;;;;;;52.45;23.25;;;6.40;70.10;;;;;;4986758;28;20241;-77
2022/03/19 04:04:50;;;;;;;38.03;16.85;;;6.40;70.20;;;;;;5000398;28;20206;-77
2022/03/19 04:07:18;;;;;;;28.25;15.43;;;6.30;70.20;;;;;;4985787;28;20213;-77
2022/03/19 04:09:46;;;;;;;29.35;13.48;;;6.30;70.30;;;;;;5002221;28;20207;-77
2022/03/19 04:12:14;;;;;;;27.58;13.52;;;6.30;70.40;;;;;;5003942;28;20390;-77
2022/03/19 04:14:42;;;;;;;29.77;14.60;;;6.20;70.50;;;;;;4988212;28;20222;-77
2022/03/19 04:17:10;;;;;;;35.92;15.27;;;6.20;70.40;;;;;;5001811;28;20289;-77
2022/03/19 04:19:39;;;;;;;79.82;36.58;;;6.20;70.60;;;;;;4989452;28;20265;-77
2022/03/19 04:22:08;;;;;;;56.45;23.55;;;6.20;70.50;;;;;;5001834;28;20229;-77
2022/03/19 04:24:36;;;;;;;42.30;21.02;;;6.20;70.50;;;;;;4985169;28;20331;-77
2022/03/19 04:27:04;;;;;;;62.45;27.95;;;6.10;70.50;;;;;;5002169;28;20215;-77
2022/03/19 04:29:32;;;;;;;25.13;14.13;;;6.10;70.50;;;;;;4985425;28;20692;-77
2022/03/19 04:32:00;;;;;;;29.20;16.13;;;6.10;70.50;;;;;;4985554;28;20759;-78
2022/03/19 04:34:28;;;;;;;32.85;17.33;;;6.00;70.70;;;;;;5000054;28;20207;-77
2022/03/19 04:36:56;;;;;;;31.95;15.43;;;6.00;70.70;;;;;;4990791;28;20203;-77
2022/03/19 04:39:26;;;;;;;40.55;19.00;;;6.00;70.80;;;;;;4999804;28;20225;-78
2022/03/19 04:41:55;;;;;;;36.42;17.92;;;6.10;70.90;;;;;;4984421;28;20222;-77
2022/03/19 04:44:23;;;;;;;31.00;16.20;;;6.10;70.80;;;;;;4999207;28;20215;-78
2022/03/19 04:46:51;;;;;;;37.40;16.20;;;6.10;70.90;;;;;;4996225;28;20357;-78
2022/03/19 04:49:19;;;;;;;30.50;15.02;;;6.10;70.90;;;;;;4984721;28;20364;-78
2022/03/19 04:51:49;;;;;;;24.77;14.60;;;6.10;70.80;;;;;;4998795;28;20292;-77
2022/03/19 04:54:20;;;;;;;35.60;15.40;;;6.10;70.80;;;;;;4983659;28;20191;-79
2022/03/19 04:56:49;;;;;;;30.73;14.68;;;6.10;70.80;;;;;;4984527;28;20195;-76
2022/03/19 04:59:17;;;;;;;31.67;15.40;;;6.10;71.00;;;;;;4983199;28;20265;-78
2022/03/19 05:01:45;;;;;;;28.52;16.38;;;6.10;71.00;;;;;;4999147;28;20229;-79
2022/03/19 05:04:14;;;;;;;23.47;13.93;;;6.10;71.30;;;;;;4964312;28;1046227;-78
2022/03/19 05:06:42;;;;;;;30.27;16.83;;;6.20;71.50;;;;;;4986061;28;20207;-79
2022/03/19 05:11:57;;;;;;;35.55;15.98;;;6.30;71.80;;;;;;4987332;28;20218;-79
2022/03/19 05:14:25;;;;;;;29.65;15.52;;;6.30;71.90;;;;;;4985153;28;20206;-79
2022/03/19 05:16:53;;;;;;;34.28;17.15;;;6.40;72.00;;;;;;4983577;28;20242;-79
2022/03/19 05:19:21;;;;;;;30.40;16.25;;;6.40;72.10;;;;;;4982002;28;20210;-79
2022/03/19 05:21:50;;;;;;;35.50;17.58;;;6.50;72.20;;;;;;4987935;28;20226;-79
2022/03/19 05:24:19;;;;;;;34.20;17.67;;;6.50;72.40;;;;;;4986866;28;20207;-78
2022/03/19 05:26:47;;;;;;;32.45;15.18;;;6.50;72.50;;;;;;4986748;28;20203;-79
2022/03/19 05:29:16;;;;;;;27.85;14.93;;;6.60;72.50;;;;;;4986193;28;20206;-78
2022/03/19 05:31:48;;;;;;;35.83;17.70;;;6.60;72.50;;;;;;4985097;28;20230;-78
2022/03/19 05:34:31;;;;;;;29.65;17.23;;;6.60;72.60;;;;;;5003796;28;20234;-78
2022/03/19 05:37:00;;;;;;;30.83;16.55;;;6.60;72.60;;;;;;4985472;28;20213;-78
2022/03/19 05:39:29;;;;;;;31.77;17.10;;;6.60;72.60;;;;;;5000310;28;20210;-78
2022/03/19 05:41:57;;;;;;;31.55;17.80;;;6.60;72.60;;;;;;4985331;28;20226;-79
2022/03/19 05:44:27;;;;;;;28.08;15.25;;;6.60;72.70;;;;;;4984136;28;20206;-79
2022/03/19 05:46:57;;;;;;;46.28;18.80;;;6.60;72.80;;;;;;5000577;28;20270;-78
2022/03/19 05:49:26;;;;;;;31.20;16.73;;;6.70;72.80;;;;;;4983932;28;20203;-79
2022/03/19 05:51:54;;;;;;;30.35;15.68;;;6.70;72.90;;;;;;4985282;28;20620;-78
2022/03/19 05:54:23;;;;;;;27.88;15.00;;;6.70;72.90;;;;;;4982480;28;20233;-79
2022/03/19 05:56:52;;;;;;;37.75;19.65;;;6.70;72.90;;;;;;4983983;28;20207;-78
2022/03/19 05:59:21;;;;;;;33.55;16.83;;;6.70;72.90;;;;;;5001137;28;20214;-78
2022/03/19 06:01:51;;;;;;;29.38;16.20;;;6.70;73.00;;;;;;4984887;28;20227;-78
2022/03/19 06:04:19;;;;;;;34.13;15.10;;;6.70;73.00;;;;;;4979562;28;20680;-78
2022/03/19 06:06:48;;;;;;;30.00;15.40;;;6.70;73.10;;;;;;4984959;28;20194;-78
2022/03/19 06:09:16;;;;;;;39.85;17.35;;;6.70;73.10;;;;;;4985706;28;20724;-78
2022/03/19 06:11:45;;;;;;;30.52;16.35;;;6.80;73.10;;;;;;4986108;28;20703;-78
2022/03/19 06:14:13;;;;;;;32.28;16.55;;;6.80;73.20;;;;;;4987628;28;20313;-79
2022/03/19 06:16:41;;;;;;;30.30;16.85;;;6.80;73.30;;;;;;4993324;28;20222;-79
2022/03/19 06:19:11;;;;;;;45.28;20.95;;;6.70;73.40;;;;;;4989080;28;20260;-78
2022/03/19 06:21:40;;;;;;;34.55;17.50;;;6.70;73.40;;;;;;4989590;28;20238;-78
2022/03/19 06:24:09;;;;;;;38.42;17.83;;;6.70;73.40;;;;;;5001370;28;20218;-78
2022/03/19 06:26:37;;;;;;;34.45;18.27;;;6.80;73.40;;;;;;5005266;28;20266;-78
2022/03/19 06:29:05;;;;;;;32.60;17.48;;;6.80;73.40;;;;;;4990416;28;20206;-78
2022/03/19 06:31:33;;;;;;;28.83;15.80;;;6.80;73.50;;;;;;4987393;28;20238;-78
2022/03/19 06:34:03;;;;;;;28.05;14.68;;;6.80;73.60;;;;;;4989698;28;20587;-78
2022/03/19 06:39:19;;;;;;;38.15;18.42;;;6.90;73.60;;;;;;4988979;28;20213;-77
2022/03/19 06:41:46;;;;;;;32.40;15.38;;;6.90;73.60;;;;;;5004648;28;20766;-78
2022/03/19 06:44:14;;;;;;;29.45;15.57;;;6.90;73.70;;;;;;4988180;28;20392;-78
2022/03/19 06:46:42;;;;;;;32.83;15.82;;;6.90;73.70;;;;;;4989769;28;20250;-78
2022/03/19 06:49:10;;;;;;;28.63;14.95;;;6.90;73.70;;;;;;4988353;28;20210;-78
2022/03/19 06:51:40;;;;;;;36.47;16.90;;;7.00;73.80;;;;;;4991742;28;20661;-78
2022/03/19 06:54:08;;;;;;;32.17;17.97;;;7.00;73.80;;;;;;4987446;28;20490;-78
2022/03/19 06:56:36;;;;;;;30.65;17.15;;;7.00;73.80;;;;;;4989385;28;20512;-79
2022/03/19 06:59:04;;;;;;;29.70;16.48;;;7.10;73.80;;;;;;4990686;28;20313;-79
2022/03/19 07:01:36;;;;;;;29.23;16.45;;;7.10;73.80;;;;;;5003442;28;20230;-78
2022/03/19 07:04:05;;;;;;;33.08;17.05;;;7.10;73.80;;;;;;5001558;28;20207;-77
2022/03/19 07:06:33;;;;;;;32.03;18.55;;;7.10;73.90;;;;;;4987560;28;20206;-78
2022/03/19 07:09:23;;;;;;;32.15;16.10;;;7.10;73.90;;;;;;5003478;28;20296;-78
2022/03/19 07:11:50;;;;;;;32.25;17.80;;;7.20;73.90;;;;;;5004233;28;20226;-78
2022/03/19 07:14:19;;;;;;;33.37;16.90;;;7.20;73.90;;;;;;4987702;28;20250;-79
2022/03/19 07:16:48;;;;;;;29.40;16.77;;;7.30;73.70;;;;;;5002780;28;20844;-78
2022/03/19 07:19:16;;;;;;;39.55;18.90;;;7.30;73.70;;;;;;4988573;28;20219;-78
2022/03/19 07:21:44;;;;;;;27.25;16.00;;;7.30;73.80;;;;;;4990351;28;20230;-78
2022/03/19 07:24:12;;;;;;;29.08;17.70;;;7.40;73.80;;;;;;5004264;28;20210;-78
2022/03/19 07:26:41;;;;;;;34.13;19.10;;;7.40;73.60;;;;;;4990996;28;20868;-79
2022/03/19 07:29:13;;;;;;;30.17;17.08;;;7.40;73.70;;;;;;4988597;28;20515;-77
2022/03/19 07:31:41;;;;;;;26.20;15.20;;;7.50;73.70;;;;;;5003852;28;20563;-76
2022/03/19 07:34:09;;;;;;;34.90;17.50;;;7.50;73.50;;;;;;4991738;28;20219;-78
2022/03/19 07:36:43;;;;;;;27.87;16.97;;;7.50;73.50;;;;;;5006773;28;20458;-78
2022/03/19 07:39:11;;;;;;;30.58;17.55;;;7.60;73.60;;;;;;5009334;28;20465;-79
2022/03/19 07:41:48;;;;;;;38.83;18.20;;;7.60;73.60;;;;;;5010346;28;20724;-77
2022/03/19 07:44:17;;;;;;;33.60;18.13;;;7.60;73.60;;;;;;4994449;28;20198;-78
2022/03/19 07:46:45;;;;;;;30.97;17.50;;;7.70;73.40;;;;;;5009470;28;20486;-77
2022/03/19 07:49:13;;;;;;;35.30;19.27;;;7.70;73.30;;;;;;4995254;28;20489;-77
2022/03/19 07:51:42;;;;;;;32.67;17.40;;;7.80;73.30;;;;;;4997701;28;20715;-77
2022/03/19 07:54:10;;;;;;;39.90;18.13;;;7.80;73.30;;;;;;4989142;28;20465;-78
2022/03/19 07:56:38;;;;;;;33.60;19.88;;;7.90;73.20;;;;;;5001790;28;20481;-78
2022/03/19 07:59:07;;;;;;;30.27;17.07;;;7.90;72.80;;;;;;4987418;28;20205;-80
2022/03/19 08:01:35;;;;;;;31.50;17.10;;;8.00;73.10;;;;;;4986707;28;20995;-79
2022/03/19 08:04:08;;;;;;;33.87;17.17;;;8.00;73.00;;;;;;5002520;28;20468;-79
2022/03/19 08:06:37;;;;;;;31.27;17.80;;;8.00;72.90;;;;;;5002452;28;20466;-79
2022/03/19 08:09:07;;;;;;;30.70;17.37;;;8.10;72.70;;;;;;4985864;28;20465;-77
2022/03/19 08:11:36;;;;;;;32.77;19.10;;;8.10;72.60;;;;;;4998271;28;21022;-80
2022/03/19 08:14:04;;;;;;;36.97;18.13;;;8.10;72.60;;;;;;4997983;28;20494;-79
2022/03/19 08:16:34;;;;;;;35.10;17.60;;;8.10;72.60;;;;;;5001082;28;20469;-79
2022/03/19 08:19:03;;;;;;;35.77;17.30;;;8.20;72.50;;;;;;5004660;28;20978;-80
2022/03/19 08:21:31;;;;;;;30.13;17.00;;;8.20;72.20;;;;;;4987329;28;20482;-79
2022/03/19 08:23:59;;;;;;;31.00;17.13;;;8.30;72.20;;;;;;5002778;28;20462;-80
2022/03/19 08:26:27;;;;;;;35.80;18.63;;;8.30;72.00;;;;;;4987169;28;21074;-80
2022/03/19 08:28:55;;;;;;;30.27;17.10;;;8.40;72.10;;;;;;5001980;28;20533;-79
2022/03/19 08:31:23;;;;;;;34.07;16.07;;;8.40;72.00;;;;;;5002194;28;20476;-80
2022/03/19 08:33:54;;;;;;;26.40;15.13;;;8.50;72.10;;;;;;4991200;28;21090;-78
2022/03/19 08:36:22;;;;;;;23.23;14.07;;;8.50;71.90;;;;;;4987118;28;20470;-78
2022/03/19 08:41:36;;;;;;;37.33;17.50;;;8.60;71.60;;;;;;5000039;28;20573;-79
2022/03/19 08:44:05;;;;;;;32.57;17.27;;;8.70;71.50;;;;;;4984803;28;20952;-79
2022/03/19 08:46:33;;;;;;;32.53;14.87;;;8.70;71.40;;;;;;4986938;28;20469;-80
2022/03/19 08:49:04;;;;;;;28.20;15.40;;;8.80;71.30;;;;;;4987031;28;20453;-79
2022/03/19 08:51:41;;;;;;;24.40;14.37;;;8.80;71.00;;;;;;4984579;28;20986;-77
2022/03/19 08:54:11;;;;;;;23.40;12.73;;;8.90;71.00;;;;;;5001084;28;20477;-78
2022/03/19 08:56:40;;;;;;;30.33;16.00;;;8.90;71.00;;;;;;4983260;28;21143;-78
2022/03/19 08:59:08;;;;;;;25.20;13.50;;;9.00;71.00;;;;;;4985591;28;20461;-78
2022/03/19 09:01:36;;;;;;;28.07;12.43;;;9.00;70.70;;;;;;4985931;28;21245;-78
2022/03/19 09:04:07;;;;;;;25.90;11.70;;;9.10;70.50;;;;;;4982740;28;20469;-80
2022/03/19 09:06:35;;;;;;;21.93;11.70;;;9.10;70.20;;;;;;4985346;28;20457;-79
2022/03/19 09:09:03;;;;;;;20.07;11.37;;;9.20;70.40;;;;;;4985802;28;20834;-80
2022/03/19 09:11:32;;;;;;;24.70;11.03;;;9.20;69.40;;;;;;5001322;28;20474;-79
2022/03/19 09:14:02;;;;;;;18.10;10.23;;;9.30;69.80;;;;;;4984449;28;20486;-79
2022/03/19 09:16:30;;;;;;;22.83;10.63;;;9.30;69.80;;;;;;4997709;28;21152;-79
2022/03/19 09:18:59;;;;;;;17.80;11.53;;;9.40;69.50;;;;;;4990168;28;20469;-79
2022/03/19 09:21:29;;;;;;;26.00;14.70;;;9.50;69.20;;;;;;5001920;28;20481;-79
2022/03/19 09:23:57;;;;;;;24.77;11.20;;;9.50;69.20;;;;;;5001558;28;20973;-79
2022/03/19 09:26:25;;;;;;;15.80;9.60;;;9.50;69.10;;;;;;5001778;28;20509;-80
2022/03/19 09:28:53;;;;;;;21.33;10.20;;;9.60;68.80;;;;;;5001466;28;20975;-80
2022/03/19 09:31:21;;;;;;;18.43;9.83;;;9.60;69.00;;;;;;4986397;28;20898;-84
2022/03/19 09:33:49;;;;;;;21.10;10.93;;;9.70;68.50;;;;;;4999681;28;20481;-84
2022/03/19 09:36:18;;;;;;;17.33;7.67;;;9.70;68.70;;;;;;5003057;28;20462;-84
2022/03/19 09:38:48;;;;;;;12.23;7.17;;;9.80;68.40;;;;;;5002463;28;20454;-84
2022/03/19 09:41:16;;;;;;;18.00;7.17;;;9.80;67.60;;;;;;4983463;28;20488;-84
2022/03/19 09:43:48;;;;;;;14.63;5.90;;;9.90;66.20;;;;;;4989785;28;20460;-85
2022/03/19 09:46:17;;;;;;;15.13;6.03;;;9.90;65.80;;;;;;5001905;28;20781;-84
2022/03/19 09:48:45;;;;;;;9.87;5.20;;;9.90;65.90;;;;;;4994805;28;20490;-84
2022/03/19 09:51:14;;;;;;;13.67;5.83;;;10.00;65.70;;;;;;5005835;28;20485;-83
2022/03/19 09:53:44;;;;;;;9.67;4.77;;;10.10;64.30;;;;;;5005075;28;20501;-82
2022/03/19 09:56:32;;;;;;;12.83;5.40;;;10.10;64.20;;;;;;4989068;28;20464;-83
2022/03/19 09:59:00;;;;;;;14.53;7.50;;;10.10;63.80;;;;;;4992790;28;20476;-81
2022/03/19 10:01:31;;;;;;;15.77;6.27;;;10.10;63.40;;;;;;5002379;28;20485;-83
2022/03/19 10:04:01;;;;;;;10.70;4.70;;;10.10;63.30;;;;;;5004789;28;20462;-83
2022/03/19 10:09:19;;;;;;;12.27;5.90;;;10.20;62.60;;;;;;5001897;28;21164;-83
2022/03/19 10:11:51;;;;;;;9.87;5.03;;;10.30;62.30;;;;;;5005400;28;20488;-83
2022/03/19 10:14:24;;;;;;;13.83;6.27;;;10.30;61.30;;;;;;5003687;28;20481;-83
2022/03/19 10:16:55;;;;;;;14.77;7.13;;;10.40;61.70;;;;;;5004006;28;20481;-82
2022/03/19 10:19:23;;;;;;;13.50;6.47;;;10.40;61.70;;;;;;4988933;28;20464;-83
2022/03/19 10:21:54;;;;;;;16.23;8.70;;;10.40;61.60;;;;;;5005296;28;20481;-82
2022/03/19 10:24:25;;;;;;;11.40;6.80;;;10.40;61.90;;;;;;4991377;28;20501;-83
2022/03/19 10:26:54;;;;;;;14.93;7.30;;;10.50;61.80;;;;;;4994362;28;21025;-83
2022/03/19 10:29:31;;;;;;;16.73;6.67;;;10.60;61.20;;;;;;5007866;28;20480;-83
2022/03/19 10:32:03;;;;;;;14.97;8.40;;;10.60;60.20;;;;;;5005413;28;20484;-84
2022/03/19 10:34:33;;;;;;;14.23;6.20;;;10.60;60.60;;;;;;4989332;28;20479;-84
2022/03/19 10:37:01;;;;;;;15.10;7.23;;;10.70;60.40;;;;;;4996647;28;20453;-83
2022/03/19 10:39:31;;;;;;;10.37;4.93;;;10.60;59.30;;;;;;5004715;28;20470;-84
2022/03/19 10:42:13;;;;;;;9.77;5.43;;;10.70;59.60;;;;;;5004949;28;21062;-83
2022/03/19 10:44:41;;;;;;;8.73;4.47;;;10.70;59.60;;;;;;5004210;28;21242;-85
2022/03/19 10:47:10;;;;;;;16.80;7.70;;;10.70;58.80;;;;;;4989353;28;20478;-85
2022/03/19 10:49:43;;;;;;;9.53;4.03;;;10.70;59.20;;;;;;4989355;28;20468;-83
2022/03/19 10:52:17;;;;;;;14.73;6.07;;;10.70;58.00;;;;;;4988661;28;20481;-82
2022/03/19 10:54:45;;;;;;;11.37;4.10;;;10.70;58.70;;;;;;5003817;28;20470;-84
2022/03/19 10:57:15;;;;;;;8.63;4.40;;;10.80;57.90;;;;;;4990875;28;20469;-84
2022/03/19 10:59:43;;;;;;;8.10;4.13;;;10.90;56.80;;;;;;4989846;28;20493;-83
2022/03/19 11:02:13;;;;;;;10.80;4.70;;;11.00;57.50;;;;;;5000349;28;20500;-85
2022/03/19 11:04:43;;;;;;;13.97;5.70;;;11.00;56.30;;;;;;5014631;28;20474;-84
2022/03/19 11:07:12;;;;;;;17.23;6.00;;;11.00;56.60;;;;;;5012281;28;20462;-83
2022/03/19 11:09:46;;;;;;;8.90;4.57;;;11.00;56.80;;;;;;4996727;28;20468;-82
2022/03/19 11:12:19;;;;;;;10.33;5.50;;;11.00;56.00;;;;;;5010651;28;20481;-83
2022/03/19 11:14:49;;;;;;;9.00;4.43;;;11.10;56.20;;;;;;5006138;28;20480;-82
2022/03/19 11:17:24;;;;;;;13.63;5.70;;;11.00;54.40;;;;;;5003288;28;21057;-83
2022/03/19 11:19:54;;;;;;;9.73;4.00;;;11.00;55.00;;;;;;5003289;28;20454;-85
2022/03/19 11:22:22;;;;;;;13.03;6.17;;;11.00;55.30;;;;;;4989449;28;20477;-83
2022/03/19 11:24:56;;;;;;;14.00;3.53;;;11.10;55.60;;;;;;4991642;28;20461;-83
2022/03/19 11:27:29;;;;;;;11.20;5.50;;;11.10;54.90;;;;;;4988520;28;20830;-85
2022/03/19 11:29:58;;;;;;;9.43;4.40;;;11.10;53.10;;;;;;4985320;28;20473;-85
2022/03/19 11:32:27;;;;;;;9.40;3.13;;;11.10;53.60;;;;;;5003485;28;20469;-81
2022/03/19 11:34:57;;;;;;;10.70;3.50;;;11.10;54.00;;;;;;4986175;28;20473;-82
2022/03/19 11:37:26;;;;;;;10.03;3.77;;;11.20;52.80;;;;;;4993896;28;20481;-83
2022/03/19 11:40:05;;;;;;;12.70;5.30;;;11.20;51.90;;;;;;4993990;28;20465;-84
2022/03/19 11:42:35;;;;;;;12.77;3.40;;;11.20;50.80;;;;;;4989457;28;20485;-84
2022/03/19 11:45:10;;;;;;;8.10;3.63;;;11.20;50.60;;;;;;4987230;28;20465;-84
2022/03/19 11:47:39;;;;;;;10.20;4.43;;;11.20;50.60;;;;;;4990265;28;20501;-83
2022/03/19 11:50:24;;;;;;;9.00;4.23;;;11.20;50.30;;;;;;5003494;28;20458;-84
2022/03/19 11:53:07;;;;;;;13.57;4.67;;;11.20;50.00;;;;;;4999417;28;20490;-83
2022/03/19 11:55:41;;;;;;;7.47;3.70;;;11.10;49.60;;;;;;4986742;28;20478;-81
2022/03/19 11:58:14;;;;;;;7.70;3.30;;;11.10;49.70;;;;;;5001926;28;20516;-83
2022/03/19 12:00:42;;;;;;;8.80;4.47;;;11.10;49.50;;;;;;5002740;28;20917;-82
2022/03/19 12:03:13;;;;;;;7.23;4.23;;;11.10;49.80;;;;;;4992017;28;20524;-83
2022/03/19 12:05:43;;;;;;;7.03;4.30;;;11.10;49.50;;;;;;5004713;28;20454;-82
2022/03/19 12:08:13;;;;;;;11.13;5.30;;;11.10;49.60;;;;;;5002377;28;20622;-84
2022/03/19 12:10:58;;;;;;;10.70;5.20;;;11.10;49.60;;;;;;4987423;28;20987;-83
2022/03/19 12:13:49;;;;;;;15.53;4.73;;;11.10;49.90;;;;;;5002511;28;20552;-84
2022/03/19 12:16:40;;;;;;;15.73;6.37;;;11.10;49.70;;;;;;5001514;28;20481;-82
2022/03/19 12:19:09;;;;;;;8.30;4.63;;;11.10;49.70;;;;;;4986184;28;20562;-83
2022/03/19 12:21:38;;;;;;;10.40;4.90;;;11.10;50.00;;;;;;5000565;28;20995;-84
2022/03/19 12:24:26;;;;;;;9.10;4.50;;;11.10;49.80;;;;;;4998125;28;20934;-83
2022/03/19 12:26:55;;;;;;;12.90;4.57;;;11.10;49.60;;;;;;4981304;28;20465;-78
2022/03/19 12:29:31;;;;;;;8.17;4.60;;;11.00;49.00;;;;;;4985524;28;20465;-80
2022/03/19 12:31:59;;;;;;;8.80;5.10;;;11.00;49.10;;;;;;5000099;28;20959;-79
2022/03/19 12:34:31;;;;;;;9.83;5.00;;;11.00;49.20;;;;;;4983922;28;21138;-80
2022/03/19 12:37:01;;;;;;;9.90;4.47;;;11.00;49.00;;;;;;4998819;28;20540;-80
2022/03/19 12:39:29;;;;;;;13.50;5.60;;;11.00;49.10;;;;;;4986142;28;20466;-80
2022/03/19 12:41:57;;;;;;;13.40;5.20;;;11.00;49.30;;;;;;5002722;28;21057;-79
2022/03/19 12:44:38;;;;;;;11.80;5.77;;;11.00;48.90;;;;;;4979848;28;20455;-80
2022/03/19 12:47:07;;;;;;;9.07;5.37;;;11.10;49.20;;;;;;4987174;28;20475;-80
2022/03/19 12:49:35;;;;;;;12.20;6.03;;;11.10;49.30;;;;;;5001327;28;20457;-80
2022/03/19 12:52:08;;;;;;;14.10;6.67;;;11.10;49.30;;;;;;4987121;28;20513;-80
2022/03/19 12:54:37;;;;;;;13.20;5.60;;;11.10;49.20;;;;;;4988576;28;20473;-81
2022/03/19 12:57:10;;;;;;;13.77;6.63;;;11.20;49.20;;;;;;4987126;28;20524;-81
2022/03/19 12:59:47;;;;;;;13.30;6.70;;;11.20;49.00;;;;;;4996697;28;21041;-80
2022/03/19 13:02:15;;;;;;;11.23;5.20;;;11.20;49.00;;;;;;4984965;28;20479;-80
2022/03/19 13:04:45;;;;;;;10.23;5.60;;;11.20;48.70;;;;;;4986584;28;20947;-79